Flight Track Log - Related Links

Times and Time Zones

All times are in EDT time to prevent confusion due to time zone crossing. See the CSC8618 flight status page for this flight to view local times or setup timezone preferences in your user account.


Time Position Orientation Groundspeed Altitude Reporting Facility
EDT Latitude Longitude Course Direction KTS MPH feet Rate Location/Type
Sun 06:35:56 AM 22.2789 113.8446 315° West 2,700  Level FlightAware ADS-B
Sun 06:36:00 AM 23.0448 113.1115 315° West  Level Estimated
Sun 06:36:17 AM 22.2717 113.8222 251° West 240 276 3,200  Level FlightAware ADS-B
Sun 06:36:37 AM 22.2612 113.7993 236° Southwest 250 288 3,900 1,946 Climbing FlightAware ADS-B
Sun 06:36:54 AM 22.2437 113.7882 194° South 269 310 4,400 2,471 Climbing FlightAware ADS-B
Sun 06:37:11 AM 22.2348 113.7875 165° South 279 321 5,300 2,372 Climbing FlightAware ADS-B
Sun 06:37:37 AM 22.1972 113.8052 129° Southeast 291 335 6,100 2,267 Climbing FlightAware ADS-B
Sun 06:37:56 AM 22.1868 113.8351 96° East 292 336 7,000 2,550 Climbing FlightAware ADS-B
Sun 06:38:17 AM 22.1875 113.8645 87° East 296 341 7,800 2,195 Climbing FlightAware ADS-B
Sun 06:38:37 AM 22.1894 113.8947 86° East 304 350 8,500 2,308 Climbing FlightAware ADS-B
Sun 06:38:56 AM 22.1909 113.9212 87° East 307 353 9,300 2,200 Climbing FlightAware ADS-B
Sun 06:39:37 AM 22.2010 113.9844 65° Northeast 310 357 10,700 1,672 Climbing FlightAware ADS-B
Sun 06:39:57 AM 22.2226 114.0075 38° Northeast 329 379 11,000 900 Climbing FlightAware ADS-B
Sun 06:40:17 AM 22.2520 114.0209 18° North 345 397 11,300 1,385 Climbing FlightAware ADS-B
Sun 06:41:15 AM 22.3249 114.0482 20° North 374 430 12,800 1,552 Climbing FlightAware ADS-B
Sun 06:43:00 AM 22.4165 113.9476 315° West  Level Estimated
Sun 06:44:00 AM 22.4687 113.8900 315° West  Level Estimated
Sun 06:45:00 AM 22.5210 113.8324 314° West  Level Estimated
Sun 06:46:00 AM 22.5732 113.7747 314° West  Level Estimated
Sun 06:47:00 AM 22.6255 113.7171 314° West  Level Estimated
Sun 06:48:00 AM 22.6777 113.6593 314° West  Level Estimated
Sun 06:49:00 AM 22.7298 113.6015 314° West  Level Estimated
Sun 06:50:00 AM 22.7820 113.5437 314° West  Level Estimated
Sun 06:51:00 AM 22.8341 113.4858 314° West  Level Estimated
Sun 06:52:00 AM 22.8862 113.4279 314° West  Level Estimated
Sun 06:53:00 AM 22.9383 113.3699 314° West  Level Estimated
Sun 06:54:00 AM 22.9904 113.3119 314° West  Level Estimated
Sun 06:55:00 AM 23.0425 113.2539 314° West  Level Estimated
Sun 06:56:00 AM 23.0945 113.1958 314° West  Level Estimated
Sun 06:57:00 AM 23.1465 113.1376 314° West  Level Estimated
Sun 06:58:00 AM 23.1985 113.0795 314° West  Level Estimated
Sun 06:59:00 AM 23.2505 113.0212 314° West  Level Estimated
Sun 07:00:00 AM 23.3024 112.9630 314° West  Level Estimated
Sun 07:01:00 AM 23.3543 112.9046 314° West  Level Estimated
Sun 07:02:00 AM 23.4062 112.8463 314° West  Level Estimated
Sun 07:03:00 AM 23.4581 112.7878 314° West  Level Estimated
Sun 07:04:00 AM 23.5100 112.7294 314° West  Level Estimated
Sun 07:05:00 AM 23.5618 112.6709 314° West  Level Estimated
Sun 07:06:00 AM 23.6136 112.6123 314° West  Level Estimated
Sun 07:07:00 AM 23.6654 112.5537 314° West  Level Estimated
Sun 07:08:00 AM 23.7172 112.4951 314° West  Level Estimated
Sun 07:09:00 AM 23.7689 112.4364 314° West  Level Estimated
Sun 07:10:00 AM 23.8207 112.3776 314° West  Level Estimated
Sun 07:11:00 AM 23.8724 112.3189 314° West  Level Estimated
Sun 07:12:00 AM 23.9240 112.2600 314° West  Level Estimated
Sun 07:13:00 AM 23.9757 112.2011 314° West  Level Estimated
Sun 07:14:00 AM 24.0273 112.1422 314° West  Level Estimated
Sun 07:15:00 AM 24.0790 112.0832 314° West  Level Estimated
Sun 07:16:00 AM 24.1306 112.0242 314° West  Level Estimated
Sun 07:17:00 AM 24.1821 111.9651 314° West  Level Estimated
Sun 07:18:00 AM 24.2337 111.9060 314° West  Level Estimated
Sun 07:19:00 AM 24.2852 111.8469 314° West  Level Estimated
Sun 07:20:00 AM 24.3367 111.7877 314° West  Level Estimated
Sun 07:21:00 AM 24.3882 111.7284 314° West  Level Estimated
Sun 07:22:00 AM 24.4396 111.6691 314° West  Level Estimated
Sun 07:23:00 AM 24.4911 111.6097 314° West  Level Estimated
Sun 07:24:00 AM 24.5425 111.5503 314° West  Level Estimated
Sun 07:25:00 AM 24.5939 111.4909 314° West  Level Estimated
Sun 07:26:00 AM 24.6452 111.4314 314° West  Level Estimated
Sun 07:27:00 AM 24.6966 111.3718 314° West  Level Estimated
Sun 07:28:00 AM 24.7479 111.3122 313° West  Level Estimated
Sun 07:29:00 AM 24.7992 111.2525 313° West  Level Estimated
Sun 07:30:00 AM 24.8504 111.1928 313° West  Level Estimated
Sun 07:31:00 AM 24.9017 111.1331 313° West  Level Estimated
Sun 07:32:00 AM 24.9529 111.0733 313° West  Level Estimated
Sun 07:33:00 AM 25.0041 111.0135 313° West  Level Estimated
Sun 07:34:00 AM 25.0553 110.9536 313° West  Level Estimated
Sun 07:35:00 AM 25.1064 110.8936 313° West  Level Estimated
Sun 07:36:00 AM 25.1576 110.8336 313° West  Level Estimated
Sun 07:37:00 AM 25.2087 110.7736 313° West  Level Estimated
Sun 07:38:00 AM 25.2597 110.7134 313° West  Level Estimated
Sun 07:39:00 AM 25.3108 110.6533 313° West  Level Estimated
Sun 07:40:00 AM 25.3618 110.5931 313° West  Level Estimated
Sun 07:41:00 AM 25.4128 110.5329 313° West  Level Estimated
Sun 07:42:00 AM 25.4638 110.4725 313° West  Level Estimated
Sun 07:43:00 AM 25.5147 110.4122 313° West  Level Estimated
Sun 07:44:00 AM 25.5657 110.3518 313° West  Level Estimated
Sun 07:45:00 AM 25.6166 110.2913 313° West  Level Estimated
Sun 07:46:00 AM 25.6674 110.2308 313° West  Level Estimated
Sun 07:47:00 AM 25.7183 110.1703 313° West  Level Estimated
Sun 07:48:00 AM 25.7691 110.1096 313° West  Level Estimated
Sun 07:49:00 AM 25.8199 110.0490 313° West  Level Estimated
Sun 07:50:00 AM 25.8707 109.9883 313° West  Level Estimated
Sun 07:51:00 AM 25.9215 109.9275 313° West  Level Estimated
Sun 07:52:00 AM 25.9722 109.8667 313° West  Level Estimated
Sun 07:53:00 AM 26.0229 109.8058 313° West  Level Estimated
Sun 07:54:00 AM 26.0736 109.7449 313° West  Level Estimated
Sun 07:55:00 AM 26.1242 109.6839 313° West  Level Estimated
Sun 07:56:00 AM 26.1749 109.6229 313° West  Level Estimated
Sun 07:57:00 AM 26.2255 109.5618 313° West  Level Estimated
Sun 07:58:00 AM 26.2760 109.5006 313° West  Level Estimated
Sun 07:59:00 AM 26.3266 109.4395 313° West  Level Estimated
Sun 08:00:00 AM 26.3771 109.3782 313° West  Level Estimated
Sun 08:01:00 AM 26.4276 109.3169 313° West  Level Estimated
Sun 08:02:00 AM 26.4781 109.2556 313° West  Level Estimated
Sun 08:03:00 AM 26.5285 109.1942 313° West  Level Estimated
Sun 08:04:00 AM 26.5789 109.1327 313° West  Level Estimated
Sun 08:05:00 AM 26.6293 109.0712 313° West  Level Estimated
Sun 08:06:00 AM 26.6797 109.0096 312° West  Level Estimated
Sun 08:07:00 AM 26.7300 108.9480 312° West  Level Estimated
Sun 08:08:00 AM 26.7803 108.8863 312° West  Level Estimated
Sun 08:09:00 AM 26.8306 108.8246 312° West  Level Estimated
Sun 08:10:00 AM 26.8809 108.7628 312° West  Level Estimated
Sun 08:11:00 AM 26.9311 108.7010 312° West  Level Estimated
Sun 08:12:00 AM 26.9813 108.6391 312° West  Level Estimated
Sun 08:13:00 AM 27.0315 108.5771 312° West  Level Estimated
Sun 08:14:00 AM 27.0816 108.5151 312° West  Level Estimated
Sun 08:15:00 AM 27.1318 108.4530 312° West  Level Estimated
Sun 08:16:00 AM 27.1819 108.3909 312° West  Level Estimated
Sun 08:17:00 AM 27.2319 108.3287 312° West  Level Estimated
Sun 08:18:00 AM 27.2820 108.2665 312° West  Level Estimated
Sun 08:19:00 AM 27.3320 108.2042 312° West  Level Estimated
Sun 08:20:00 AM 27.3820 108.1419 312° West  Level Estimated
Sun 08:21:00 AM 27.4319 108.0795 312° West  Level Estimated
Sun 08:22:00 AM 27.4818 108.0170 312° West  Level Estimated
Sun 08:23:00 AM 27.5317 107.9545 312° West  Level Estimated
Sun 08:24:00 AM 27.5816 107.8920 312° West  Level Estimated
Sun 08:25:00 AM 27.6315 107.8293 312° West  Level Estimated
Sun 08:26:00 AM 27.6813 107.7666 312° West  Level Estimated
Sun 08:27:00 AM 27.7311 107.7039 312° West  Level Estimated
Sun 08:28:00 AM 27.7808 107.6411 312° West  Level Estimated
Sun 08:29:00 AM 27.8306 107.5782 312° West  Level Estimated
Sun 08:30:00 AM 27.8803 107.5153 312° West  Level Estimated
Sun 08:31:00 AM 27.9300 107.4524 312° West  Level Estimated
Sun 08:32:00 AM 27.9796 107.3893 312° West  Level Estimated
Sun 08:33:00 AM 28.0292 107.3263 312° West  Level Estimated
Sun 08:34:00 AM 28.0788 107.2631 312° West  Level Estimated
Sun 08:35:00 AM 28.1284 107.1999 312° West  Level Estimated
Sun 08:36:00 AM 28.1779 107.1367 312° West  Level Estimated
Sun 08:37:00 AM 28.2274 107.0733 312° West  Level Estimated
Sun 08:38:00 AM 28.2769 107.0100 312° West  Level Estimated
Sun 08:39:00 AM 28.3263 106.9465 312° West  Level Estimated
Sun 08:40:00 AM 28.3757 106.8830 312° West  Level Estimated
Sun 08:41:00 AM 28.4251 106.8195 311° West  Level Estimated
Sun 08:42:00 AM 28.4745 106.7559 311° West  Level Estimated
Sun 08:43:00 AM 28.5238 106.6922 311° West  Level Estimated
Sun 08:44:00 AM 28.5731 106.6284 311° West  Level Estimated
Sun 08:45:00 AM 28.6224 106.5647 311° West  Level Estimated
Sun 08:46:00 AM 28.6716 106.5008 311° West  Level Estimated
Sun 08:47:00 AM 28.7208 106.4369 311° West  Level Estimated
Sun 08:48:00 AM 28.7700 106.3729 311° West  Level Estimated
Sun 08:49:00 AM 28.8191 106.3089 311° West  Level Estimated
Sun 08:50:00 AM 28.8682 106.2448 311° West  Level Estimated
Sun 08:51:00 AM 28.9173 106.1806 311° West  Level Estimated
Sun 08:52:00 AM 28.9664 106.1164 311° West  Level Estimated
Sun 08:53:00 AM 29.0154 106.0521 311° West  Level Estimated
Sun 08:54:00 AM 29.0644 105.9878 311° West  Level Estimated
Sun 08:55:00 AM 29.1134 105.9234 311° West  Level Estimated
Sun 08:56:00 AM 29.1623 105.8589 311° West  Level Estimated
Sun 08:57:00 AM 29.2112 105.7944 311° West  Level Estimated
Sun 08:58:00 AM 29.2601 105.7298 311° West  Level Estimated
Sun 08:59:00 AM 29.3089 105.6652 311° West  Level Estimated
Sun 09:00:00 AM 29.3577 105.6005 311° West  Level Estimated
Sun 09:01:00 AM 29.4065 105.5357 311° West  Level Estimated
Sun 09:02:00 AM 29.4552 105.4709 311° West  Level Estimated
Sun 09:03:00 AM 29.5040 105.4060 311° West  Level Estimated
Sun 09:04:00 AM 29.5526 105.3410 311° West  Level Estimated
Sun 09:05:00 AM 29.6013 105.2760 311° West  Level Estimated
Sun 09:06:00 AM 29.6499 105.2110 311° West  Level Estimated
Sun 09:07:00 AM 29.6985 105.1458 311° West  Level Estimated
Sun 09:08:00 AM 29.7470 105.0806 311° West  Level Estimated
Sun 09:09:00 AM 29.7956 105.0153 311° West  Level Estimated
Sun 09:10:00 AM 29.8441 104.9500 311° West  Level Estimated
Sun 09:11:00 AM 29.8925 104.8846 311° West  Level Estimated
Sun 09:12:00 AM 29.9410 104.8191 310° West  Level Estimated
Sun 09:13:00 AM 29.9893 104.7536 310° West  Level Estimated
Sun 09:14:00 AM 30.0377 104.6880 310° West  Level Estimated
Sun 09:15:00 AM 30.0860 104.6224 310° West  Level Estimated
Sun 09:16:00 AM 30.1343 104.5567 310° West  Level Estimated
Sun 09:17:00 AM 30.1826 104.4909 310° West  Level Estimated
Sun 09:18:00 AM 30.2308 104.4250 310° West  Level Estimated
Sun 09:19:00 AM 30.2790 104.3591 310° West  Level Estimated
Sun 09:20:00 AM 30.3272 104.2932 310° West  Level Estimated
Sun 09:21:00 AM 30.3753 104.2271 310° West  Level Estimated
Sun 09:22:00 AM 30.4234 104.1610 310° West  Level Estimated

Login

Don't have an account? Register now (free) for customized features, flight alerts, and more!